Time;durP1;ratioP1;P1;durP2;ratioP2;P2;SDS_P1;SDS_P2;PMS_P1;PMS_P2;Temp;Humidity;BMP_temperature;BMP_pressure;BME280_temperature;BME280_humidity;BME280_pressure;Samples;Min_cycle;Max_cycle;Signal;HPM_P1;HPM_P2
2020/12/03 00:01:07;;;;;;;43.97;22.05;;;;;;;5.16;100.00;100451.66;5037989;28;20041;-70
2020/12/03 00:03:55;;;;;;;53.95;22.65;;;;;;;5.21;100.00;100449.63;5036796;28;20480;-69
2020/12/03 00:06:26;;;;;;;50.20;21.92;;;;;;;5.26;100.00;100436.97;5023432;28;20041;-70
2020/12/03 00:09:06;;;;;;;52.50;24.95;;;;;;;5.13;100.00;100442.00;5032029;28;20037;-70
2020/12/03 00:11:34;;;;;;;69.43;26.17;;;;;;;5.20;100.00;100434.59;5055483;28;20037;-70
2020/12/03 00:14:00;;;;;;;54.95;24.40;;;;;;;5.10;100.00;100430.66;5032278;28;20065;-70
2020/12/03 00:16:29;;;;;;;58.38;24.17;;;;;;;5.09;100.00;100419.16;5068121;28;20025;-70
2020/12/03 00:18:54;;;;;;;56.38;23.48;;;;;;;5.20;100.00;100416.84;5033819;28;20041;-70
2020/12/03 00:21:39;;;;;;;62.55;26.10;;;;;;;5.18;100.00;100421.41;5033351;28;20036;-69
2020/12/03 00:24:06;;;;;;;60.88;23.92;;;;;;;5.24;100.00;100414.91;5036174;28;21528;-70
2020/12/03 00:26:31;;;;;;;46.58;21.05;;;;;;;5.20;100.00;100408.88;5029513;28;20055;-69
2020/12/03 00:28:58;;;;;;;75.45;27.95;;;;;;;5.18;100.00;100405.44;5039228;28;20029;-69
2020/12/03 00:31:24;;;;;;;73.05;30.70;;;;;;;5.17;100.00;100401.03;5030239;28;20087;-70
2020/12/03 00:33:49;;;;;;;73.28;31.13;;;;;;;5.07;100.00;100398.88;5037941;28;20068;-69
2020/12/03 00:36:16;;;;;;;64.93;27.30;;;;;;;5.15;100.00;100394.06;5026628;28;20248;-70
2020/12/03 00:38:42;;;;;;;70.10;29.02;;;;;;;5.18;100.00;100391.28;5023717;28;20079;-70
2020/12/03 00:41:07;;;;;;;55.47;24.52;;;;;;;5.16;100.00;100382.47;5024346;28;20037;-69
2020/12/03 00:43:32;;;;;;;63.30;26.02;;;;;;;5.14;100.00;100385.22;5026090;28;20075;-70
2020/12/03 00:45:58;;;;;;;67.85;28.92;;;;;;;5.15;100.00;100380.75;5030139;28;20129;-70
2020/12/03 00:48:23;;;;;;;81.72;31.35;;;;;;;5.11;100.00;100385.38;5009971;28;20030;-70
2020/12/03 00:50:49;;;;;;;104.70;31.73;;;;;;;5.10;100.00;100382.78;5032208;28;20041;-70
2020/12/03 00:53:17;;;;;;;70.07;30.30;;;;;;;5.18;100.00;100376.16;5034809;28;20116;-70
2020/12/03 00:55:44;;;;;;;86.95;33.55;;;;;;;5.18;100.00;100369.97;5028642;28;20132;-70
2020/12/03 00:58:13;;;;;;;64.00;25.67;;;;;;;5.09;100.00;100370.41;5046486;28;20040;-70
2020/12/03 01:00:39;;;;;;;66.75;25.88;;;;;;;5.15;100.00;100356.81;5026030;28;20105;-70
2020/12/03 01:03:05;;;;;;;81.32;35.17;;;;;;;5.08;100.00;100352.72;5033075;28;20450;-70
2020/12/03 01:05:30;;;;;;;61.22;25.70;;;;;;;5.15;100.00;100356.81;5029088;28;20021;-70
2020/12/03 01:07:56;;;;;;;62.00;25.60;;;;;;;5.17;100.00;100353.16;5027253;28;20079;-70
2020/12/03 01:10:27;;;;;;;59.42;24.58;;;;;;;5.18;100.00;100349.56;5030858;28;20045;-69
2020/12/03 01:12:53;;;;;;;69.13;29.90;;;;;;;5.20;100.00;100346.81;5019853;28;20052;-70
2020/12/03 01:15:19;;;;;;;52.20;21.30;;;;;;;5.21;100.00;100332.56;5031701;28;20033;-70
2020/12/03 01:17:45;;;;;;;51.20;22.58;;;;;;;5.19;100.00;100335.28;5034763;28;20033;-70
2020/12/03 01:20:13;;;;;;;56.88;23.60;;;;;;;5.27;100.00;100324.28;5031877;28;20415;-70
2020/12/03 01:22:38;;;;;;;50.88;21.45;;;;;;;5.24;100.00;100325.31;5028711;28;20029;-70
2020/12/03 01:25:08;;;;;;;90.47;35.20;;;;;;;5.12;100.00;100311.75;5032071;28;20482;-69
2020/12/03 01:27:33;;;;;;;89.28;38.10;;;;;;;5.11;100.00;100310.88;5026418;28;20041;-70
2020/12/03 01:29:59;;;;;;;84.90;36.08;;;;;;;5.16;100.00;100310.66;5036165;28;20071;-70
2020/12/03 01:32:24;;;;;;;99.07;42.55;;;;;;;5.16;100.00;100310.66;5026446;28;20044;-69
2020/12/03 01:34:50;;;;;;;52.25;23.90;;;;;;;5.10;100.00;100314.47;5032923;28;20060;-70
2020/12/03 01:37:17;;;;;;;46.22;21.85;;;;;;;5.12;100.00;100309.09;5027420;28;20025;-70
2020/12/03 01:39:43;;;;;;;96.97;41.17;;;;;;;5.06;100.00;100307.56;5032317;28;20573;-70
2020/12/03 01:42:09;;;;;;;57.63;23.15;;;;;;;5.04;100.00;100303.28;5023025;28;20030;-70
2020/12/03 01:44:38;;;;;;;46.67;20.10;;;;;;;5.11;100.00;100305.56;5029628;28;20090;-70
2020/12/03 01:47:05;;;;;;;49.67;20.17;;;;;;;5.14;100.00;100304.53;5025654;28;20046;-70
2020/12/03 01:49:34;;;;;;;50.50;20.90;;;;;;;5.06;100.00;100296.09;5034561;28;20048;-70
2020/12/03 01:51:59;;;;;;;47.03;21.13;;;;;;;5.06;100.00;100301.41;5027477;28;20483;-70
2020/12/03 01:54:25;;;;;;;45.22;20.02;;;;;;;5.16;100.00;100292.91;5032954;28;20036;-70
2020/12/03 01:57:04;;;;;;;54.70;22.05;;;;;;;5.12;100.00;100279.81;5056894;28;20041;-70
2020/12/03 01:59:37;;;;;;;47.05;20.27;;;;;;;5.15;100.00;100293.81;5028043;28;20025;-70
2020/12/03 02:02:04;;;;;;;43.03;20.35;;;;;;;5.08;100.00;100281.75;5027655;28;20048;-69
2020/12/03 02:04:29;;;;;;;50.45;21.42;;;;;;;5.14;100.00;100283.25;5032499;28;20090;-70
2020/12/03 02:07:05;;;;;;;47.97;20.73;;;;;;;5.19;100.00;100271.44;5025930;28;20033;-70
2020/12/03 02:09:30;;;;;;;47.40;21.65;;;;;;;5.14;100.00;100276.13;5022464;28;20415;-70
2020/12/03 02:11:56;;;;;;;43.08;20.60;;;;;;;5.12;100.00;100263.88;5027791;28;20029;-70
2020/12/03 02:14:22;;;;;;;45.28;20.55;;;;;;;5.14;100.00;100267.28;5030158;28;20055;-70
2020/12/03 02:16:47;;;;;;;50.40;22.30;;;;;;;5.20;100.00;100261.66;5059436;28;20936;-70
2020/12/03 02:19:21;;;;;;;53.88;21.77;;;;;;;5.22;100.00;100258.00;5028935;28;20452;-70
2020/12/03 02:22:08;;;;;;;48.08;20.25;;;;;;;5.23;100.00;100250.88;5049639;28;20122;-70
2020/12/03 02:24:37;;;;;;;47.83;21.60;;;;;;;5.25;100.00;100249.00;5024051;28;20033;-70
2020/12/03 02:27:04;;;;;;;47.50;19.92;;;;;;;5.19;100.00;100242.19;5025738;28;20112;-69
2020/12/03 02:29:29;;;;;;;51.13;21.38;;;;;;;5.12;100.00;100239.94;5033009;28;20026;-70
2020/12/03 02:31:55;;;;;;;48.22;22.13;;;;;;;5.22;100.00;100238.53;5031379;28;20415;-69
2020/12/03 02:34:21;;;;;;;56.78;21.83;;;;;;;5.12;100.00;100239.94;5032531;28;20033;-70
2020/12/03 02:36:51;;;;;;;55.65;22.30;;;;;;;5.17;100.00;100236.09;5030511;28;20043;-70
2020/12/03 02:39:16;;;;;;;52.00;23.10;;;;;;;5.15;100.00;100226.47;5024312;28;20458;-70
2020/12/03 02:41:42;;;;;;;62.42;23.10;;;;;;;5.27;100.00;100225.84;5038162;28;20033;-69
2020/12/03 02:44:07;;;;;;;59.65;22.33;;;;;;;5.29;100.00;100218.66;5027614;28;20045;-70
2020/12/03 02:46:33;;;;;;;58.30;22.17;;;;;;;5.35;100.00;100213.03;5035072;28;20029;-70
2020/12/03 02:48:58;;;;;;;53.63;21.45;;;;;;;5.28;100.00;100211.59;5028757;28;20490;-70
2020/12/03 02:51:23;;;;;;;52.88;21.55;;;;;;;5.28;100.00;100203.63;5024710;28;20415;-70
2020/12/03 02:53:49;;;;;;;49.00;20.83;;;;;;;5.23;100.00;100203.00;5029637;28;20048;-70
2020/12/03 02:56:15;;;;;;;57.45;22.48;;;;;;;5.17;100.00;100198.00;5030423;28;20029;-70
2020/12/03 02:58:40;;;;;;;55.67;22.17;;;;;;;5.22;100.00;100196.81;5030013;28;20464;-70
2020/12/03 03:01:05;;;;;;;47.67;21.30;;;;;;;5.20;100.00;100187.19;5028381;28;20034;-70
2020/12/03 03:03:31;;;;;;;53.60;22.55;;;;;;;5.19;100.00;100182.78;5025547;28;20018;-70
2020/12/03 03:05:56;;;;;;;53.47;20.75;;;;;;;5.15;100.00;100189.22;5027308;28;20039;-70
2020/12/03 03:08:22;;;;;;;58.10;22.67;;;;;;;5.14;100.00;100187.47;5048248;28;20029;-70
2020/12/03 03:10:48;;;;;;;62.20;22.00;;;;;;;5.24;100.00;100183.44;5027508;28;20111;-70
2020/12/03 03:13:13;;;;;;;50.35;20.10;;;;;;;5.27;100.00;100175.28;5028337;28;20033;-70
2020/12/03 03:15:38;;;;;;;55.03;21.45;;;;;;;5.32;100.00;100175.03;5027505;28;20723;-70
2020/12/03 03:18:04;;;;;;;61.08;21.15;;;;;;;5.20;100.00;100176.53;5023939;28;20638;-70
2020/12/03 03:20:30;;;;;;;51.38;20.50;;;;;;;5.21;100.00;100172.94;5032800;28;20029;-70
2020/12/03 03:22:55;;;;;;;52.45;21.73;;;;;;;5.19;100.00;100162.38;5029197;28;20560;-70
2020/12/03 03:25:20;;;;;;;61.97;21.33;;;;;;;5.28;100.00;100161.06;5033627;28;20037;-70
2020/12/03 03:27:46;;;;;;;56.88;21.58;;;;;;;5.33;100.00;100150.16;5028885;28;20037;-69
2020/12/03 03:30:11;;;;;;;54.67;20.38;;;;;;;5.27;100.00;100152.19;5022522;28;20570;-70
2020/12/03 03:32:37;;;;;;;59.25;21.08;;;;;;;5.40;100.00;100141.78;5029682;28;20033;-70
2020/12/03 03:35:04;;;;;;;56.83;20.20;;;;;;;5.39;100.00;100129.41;5027915;28;20025;-70
2020/12/03 03:37:30;;;;;;;49.22;20.88;;;;;;;5.47;100.00;100129.88;5022493;28;20040;-70
2020/12/03 03:39:56;;;;;;;52.88;20.42;;;;;;;5.39;100.00;100134.75;5026220;28;20049;-70
2020/12/03 03:42:21;;;;;;;55.80;21.50;;;;;;;5.48;100.00;100123.63;5027918;28;20089;-69
2020/12/03 03:44:47;;;;;;;56.83;19.38;;;;;;;5.49;100.00;100116.50;5036152;28;20028;-70
2020/12/03 03:47:12;;;;;;;58.63;21.10;;;;;;;5.36;100.00;100116.28;5032851;28;20063;-70
2020/12/03 03:49:37;;;;;;;58.35;21.20;;;;;;;5.38;100.00;100111.72;5031114;28;20044;-69
2020/12/03 03:52:03;;;;;;;55.28;20.90;;;;;;;5.36;100.00;100113.63;5030565;28;20044;-70
2020/12/03 03:54:28;;;;;;;60.38;21.45;;;;;;;5.33;100.00;100103.13;5037895;28;20513;-70
2020/12/03 03:56:54;;;;;;;54.88;19.65;;;;;;;5.30;100.00;100103.31;5031027;28;20446;-70
2020/12/03 03:59:19;;;;;;;56.33;19.25;;;;;;;5.28;100.00;100094.53;5028248;28;20028;-70
2020/12/03 04:01:45;;;;;;;58.45;21.20;;;;;;;5.31;100.00;100089.03;5032852;28;20392;-70
2020/12/03 04:04:10;;;;;;;61.25;20.90;;;;;;;5.32;100.00;100085.44;5035395;28;20041;-70
2020/12/03 04:06:35;;;;;;;63.33;20.80;;;;;;;5.31;100.00;100081.06;5029210;28;20041;-70
2020/12/03 04:09:03;;;;;;;59.80;21.08;;;;;;;5.23;100.00;100076.16;5056992;28;20026;-70
2020/12/03 04:11:28;;;;;;;59.33;20.77;;;;;;;5.22;100.00;100084.22;5029360;28;20073;-70
2020/12/03 04:13:54;;;;;;;65.38;21.70;;;;;;;5.21;100.00;100077.16;5051286;22;20096;-71
2020/12/03 04:16:19;;;;;;;62.85;21.00;;;;;;;5.24;100.00;100067.25;5026041;28;20657;-71
2020/12/03 04:18:44;;;;;;;56.63;21.02;;;;;;;5.28;100.00;100065.25;5028215;28;20127;-71
2020/12/03 04:21:10;;;;;;;54.63;21.33;;;;;;;5.34;100.00;100061.41;5027581;28;20428;-71
2020/12/03 04:23:36;;;;;;;59.95;20.35;;;;;;;5.34;100.00;100064.94;5029385;28;20029;-71
2020/12/03 04:26:02;;;;;;;63.40;20.95;;;;;;;5.39;100.00;100060.22;5024439;28;20098;-72
2020/12/03 04:28:28;;;;;;;59.60;20.08;;;;;;;5.33;100.00;100063.22;5031312;28;20087;-71
2020/12/03 04:30:54;;;;;;;55.92;20.88;;;;;;;5.35;100.00;100057.81;5017562;28;20502;-72
2020/12/03 04:33:20;;;;;;;56.67;20.17;;;;;;;5.25;100.00;100049.44;5027437;28;20037;-71
2020/12/03 04:35:46;;;;;;;57.38;20.08;;;;;;;5.24;100.00;100050.41;5022724;28;20071;-72
2020/12/03 04:38:12;;;;;;;52.28;19.83;;;;;;;5.22;100.00;100047.81;5027129;28;20029;-72
2020/12/03 04:40:41;;;;;;;60.33;20.77;;;;;;;5.22;100.00;100046.97;5027818;28;20029;-71
2020/12/03 04:43:26;;;;;;;56.30;20.48;;;;;;;5.21;100.00;100055.88;5024026;28;20116;-71
2020/12/03 04:46:05;;;;;;;60.00;22.05;;;;;;;5.19;100.00;100047.09;5022109;28;20034;-72
2020/12/03 04:48:41;;;;;;;63.95;21.27;;;;;;;5.18;100.00;100040.97;5022350;28;20030;-72
2020/12/03 04:51:17;;;;;;;58.97;21.55;;;;;;;5.26;100.00;100044.06;5027280;28;20116;-72
2020/12/03 04:53:54;;;;;;;53.67;19.27;;;;;;;5.33;100.00;100049.91;5022804;28;20487;-71
2020/12/03 04:56:57;;;;;;;57.42;19.65;;;;;;;5.35;100.00;100041.84;5022935;28;20259;-71
2020/12/03 05:00:01;;;;;;;54.10;19.40;;;;;;;5.36;100.00;100028.47;5020610;28;20075;-71
2020/12/03 05:02:53;;;;;;;62.13;22.40;;;;;;;5.37;100.00;100029.34;5022551;28;20096;-71
2020/12/03 05:05:34;;;;;;;61.60;20.80;;;;;;;5.33;100.00;100028.63;5014767;28;20029;-71
2020/12/03 05:08:21;;;;;;;61.67;21.45;;;;;;;5.37;100.00;100024.84;5014094;28;20399;-72
2020/12/03 05:10:47;;;;;;;54.65;20.08;;;;;;;5.33;100.00;100017.13;5022769;28;20633;-72
2020/12/03 05:13:30;;;;;;;63.45;20.83;;;;;;;5.32;100.00;100018.06;5024158;28;20041;-72
2020/12/03 05:15:59;;;;;;;58.35;19.35;;;;;;;5.47;100.00;100010.13;5025598;28;20044;-72
2020/12/03 05:18:49;;;;;;;65.57;21.95;;;;;;;5.52;100.00;100001.88;5043952;28;20555;-71
2020/12/03 05:21:18;;;;;;;59.33;20.48;;;;;;;5.40;100.00;99997.22;5041546;28;20041;-72
2020/12/03 05:23:44;;;;;;;58.22;19.83;;;;;;;5.46;100.00;100005.72;5024658;28;20438;-72
2020/12/03 05:26:17;;;;;;;60.95;20.58;;;;;;;5.45;100.00;100000.47;5028039;28;20044;-71
2020/12/03 05:28:51;;;;;;;58.58;18.63;;;;;;;5.49;100.00;100002.88;5026099;28;20466;-72
2020/12/03 05:31:24;;;;;;;55.03;20.00;;;;;;;5.51;100.00;99994.81;5023723;28;20049;-71
2020/12/03 05:33:50;;;;;;;61.70;20.02;;;;;;;5.50;100.00;99991.28;5022170;28;20491;-71
2020/12/03 05:36:23;;;;;;;53.97;20.17;;;;;;;5.48;100.00;99985.22;5018034;28;20060;-72
2020/12/03 05:38:49;;;;;;;56.10;19.42;;;;;;;5.54;100.00;99973.38;5025198;28;20045;-72
2020/12/03 05:41:16;;;;;;;56.85;18.40;;;;;;;5.54;100.00;99970.72;5025268;28;20040;-71
2020/12/03 05:43:42;;;;;;;59.13;19.63;;;;;;;5.48;100.00;99963.94;5021113;28;20045;-72
2020/12/03 05:46:08;;;;;;;54.20;18.67;;;;;;;5.53;100.00;99961.88;5025877;28;20566;-71
2020/12/03 05:48:33;;;;;;;51.70;18.45;;;;;;;5.51;100.00;99958.41;5024138;28;20099;-71
2020/12/03 05:51:15;;;;;;;54.38;18.88;;;;;;;5.54;100.00;99955.59;5024561;28;20436;-71
2020/12/03 05:53:51;;;;;;;56.17;18.42;;;;;;;5.54;100.00;99960.94;5017666;28;20030;-71
2020/12/03 05:56:22;;;;;;;54.90;18.45;;;;;;;5.56;100.00;99951.03;5022861;28;20037;-72
2020/12/03 05:58:48;;;;;;;52.85;17.65;;;;;;;5.60;100.00;99947.28;5010585;28;20399;-71
2020/12/03 06:01:15;;;;;;;49.42;17.23;;;;;;;5.55;100.00;99940.50;5019696;28;20040;-71
2020/12/03 06:04:02;;;;;;;53.17;18.20;;;;;;;5.51;100.00;99939.78;5020163;28;20043;-72
2020/12/03 06:06:51;;;;;;;48.55;17.58;;;;;;;5.49;100.00;99939.00;5023574;28;20060;-71
2020/12/03 06:09:38;;;;;;;59.85;18.65;;;;;;;5.47;100.00;99926.75;5023963;28;20479;-72
2020/12/03 06:12:39;;;;;;;46.55;17.52;;;;;;;5.62;100.00;99913.41;5026668;28;20639;-71
2020/12/03 06:15:13;;;;;;;49.45;16.83;;;;;;;5.62;100.00;99892.13;5024820;28;20132;-72
2020/12/03 06:17:50;;;;;;;43.00;17.45;;;;;;;5.54;100.00;99886.41;5026717;28;20029;-72
2020/12/03 06:20:40;;;;;;;41.70;16.33;;;;;;;5.54;100.00;99897.03;5020585;28;20773;-72
2020/12/03 06:23:27;;;;;;;56.55;17.80;;;;;;;5.51;100.00;99889.22;5023404;28;20125;-72
2020/12/03 06:26:18;;;;;;;38.35;15.30;;;;;;;5.46;100.00;99883.31;5020038;28;20028;-73
2020/12/03 06:29:04;;;;;;;37.15;16.10;;;;;;;5.52;100.00;99890.94;5022737;28;20041;-72
2020/12/03 06:31:48;;;;;;;41.38;15.00;;;;;;;5.45;100.00;99883.38;5021315;28;20037;-72
2020/12/03 06:34:32;;;;;;;35.85;14.40;;;;;;;5.40;100.00;99878.31;5027265;28;20024;-72
2020/12/03 06:37:02;;;;;;;36.10;14.35;;;;;;;5.40;100.00;99886.31;5021705;28;20128;-72
2020/12/03 06:39:43;;;;;;;34.70;13.88;;;;;;;5.39;100.00;99881.94;5022583;28;20022;-73
2020/12/03 06:42:38;;;;;;;36.65;15.02;;;;;;;5.32;100.00;99875.22;5025818;28;20029;-72
2020/12/03 06:45:03;;;;;;;34.47;14.45;;;;;;;5.37;100.00;99878.47;5011629;28;20106;-72
2020/12/03 06:47:56;;;;;;;35.28;14.10;;;;;;;5.39;100.00;99873.94;5022445;28;20735;-72
2020/12/03 06:50:41;;;;;;;30.53;13.60;;;;;;;5.44;100.00;99871.88;5021912;28;20511;-73
2020/12/03 06:53:37;;;;;;;28.83;12.13;;;;;;;5.44;100.00;99877.19;5025549;28;20287;-75
2020/12/03 06:56:30;;;;;;;29.92;13.50;;;;;;;5.42;100.00;99865.81;5024615;28;20029;-72
2020/12/03 06:59:15;;;;;;;32.05;12.75;;;;;;;5.51;100.00;99864.41;5023453;28;20069;-72
2020/12/03 07:01:53;;;;;;;28.58;11.82;;;;;;;5.41;100.00;99856.09;5025841;28;20044;-72
2020/12/03 07:04:56;;;;;;;35.25;13.88;;;;;;;5.46;100.00;99855.81;5019065;28;20037;-72
2020/12/03 07:08:09;;;;;;;25.98;10.85;;;;;;;5.52;100.00;99847.50;5043608;28;20029;-72
2020/12/03 07:10:56;;;;;;;21.77;10.05;;;;;;;5.48;100.00;99846.81;5019131;28;20069;-72
2020/12/03 07:13:39;;;;;;;21.90;8.93;;;;;;;5.49;100.00;99848.50;5023828;28;20087;-72
2020/12/03 07:16:14;;;;;;;21.13;9.13;;;;;;;5.48;100.00;99845.97;5023289;28;20038;-72
2020/12/03 07:19:13;;;;;;;18.50;8.23;;;;;;;5.49;100.00;99845.84;5029144;28;20079;-72
2020/12/03 07:22:08;;;;;;;23.35;9.07;;;;;;;5.48;100.00;99840.63;5027267;28;20499;-72
2020/12/03 07:24:35;;;;;;;19.25;9.43;;;;;;;5.45;100.00;99827.50;5020068;28;20038;-71
2020/12/03 07:27:10;;;;;;;21.98;8.68;;;;;;;5.39;100.00;99828.72;5028203;28;20088;-72
2020/12/03 07:29:45;;;;;;;22.42;9.45;;;;;;;5.45;100.00;99831.03;5024596;28;20029;-72
2020/12/03 07:32:32;;;;;;;18.40;8.82;;;;;;;5.46;100.00;99831.88;5023776;28;20026;-72
2020/12/03 07:35:19;;;;;;;17.48;8.35;;;;;;;5.46;100.00;99830.06;5026474;28;20554;-72
2020/12/03 07:38:01;;;;;;;22.25;9.25;;;;;;;5.40;100.00;99817.13;5030916;28;20033;-72
2020/12/03 07:40:27;;;;;;;18.10;8.80;;;;;;;5.37;100.00;99809.31;5023486;28;20125;-72
2020/12/03 07:43:04;;;;;;;23.15;8.80;;;;;;;5.39;100.00;99803.91;5027802;28;20108;-72
2020/12/03 07:45:42;;;;;;;17.15;8.55;;;;;;;5.34;100.00;99806.84;5021216;28;20097;-72
2020/12/03 07:48:26;;;;;;;17.50;8.98;;;;;;;5.27;100.00;99805.47;5026764;28;20044;-72
2020/12/03 07:51:01;;;;;;;19.38;8.30;;;;;;;5.33;100.00;99805.13;5023123;28;20605;-72
2020/12/03 07:53:27;;;;;;;22.13;8.77;;;;;;;5.32;100.00;99803.38;5023263;28;20315;-72
2020/12/03 07:55:52;;;;;;;17.35;8.40;;;;;;;5.30;100.00;99802.66;5022934;28;20461;-72
2020/12/03 07:58:41;;;;;;;27.95;9.07;;;;;;;5.24;100.00;99792.34;5026485;28;20028;-72
2020/12/03 08:01:25;;;;;;;20.33;8.90;;;;;;;5.31;100.00;99803.50;5030190;28;20057;-72
2020/12/03 08:03:51;;;;;;;16.38;8.25;;;;;;;5.36;100.00;99789.00;5028396;28;20029;-71
2020/12/03 08:06:21;;;;;;;17.88;8.75;;;;;;;5.25;100.00;99786.06;5026250;28;20128;-72
2020/12/03 08:08:59;;;;;;;24.38;10.77;;;;;;;5.21;100.00;99784.53;5009407;28;20044;-71
2020/12/03 08:11:57;;;;;;;18.35;8.52;;;;;;;5.30;100.00;99781.34;5027393;28;20120;-72
2020/12/03 08:14:29;;;;;;;25.42;11.25;;;;;;;5.25;100.00;99781.59;5024754;28;20084;-72
2020/12/03 08:16:56;;;;;;;30.65;12.85;;;;;;;5.29;100.00;99782.31;5027468;28;20038;-72
2020/12/03 08:19:35;;;;;;;18.35;10.05;;;;;;;5.20;100.00;99767.72;5022553;28;20040;-72
2020/12/03 08:22:03;;;;;;;24.67;10.50;;;;;;;5.23;100.00;99772.00;5026392;28;20060;-72
2020/12/03 08:24:31;;;;;;;22.55;9.88;;;;;;;5.18;100.00;99774.94;5028856;28;20026;-72
2020/12/03 08:26:57;;;;;;;24.40;11.25;;;;;;;5.15;100.00;99775.09;5024667;28;20585;-72
2020/12/03 08:29:37;;;;;;;20.48;9.48;;;;;;;5.21;100.00;99761.44;5023456;28;20033;-72
2020/12/03 08:32:02;;;;;;;24.08;10.90;;;;;;;5.22;100.00;99755.19;5020711;28;20044;-73
2020/12/03 08:34:39;;;;;;;22.10;10.55;;;;;;;5.19;100.00;99749.16;5017987;28;20025;-72
2020/12/03 08:37:13;;;;;;;22.92;10.43;;;;;;;5.20;100.00;99740.25;5039050;28;20297;-72
2020/12/03 08:39:41;;;;;;;23.25;10.65;;;;;;;5.22;100.00;99743.69;5026173;28;20044;-72
2020/12/03 08:42:10;;;;;;;22.58;10.20;;;;;;;5.27;100.00;99737.16;5027470;28;20104;-72
2020/12/03 08:44:36;;;;;;;20.23;10.05;;;;;;;5.17;100.00;99733.31;5045024;28;20029;-72
2020/12/03 08:47:11;;;;;;;26.95;10.40;;;;;;;5.21;100.00;99723.34;5027301;28;20390;-72
2020/12/03 08:49:46;;;;;;;20.85;10.20;;;;;;;5.27;100.00;99721.19;5023782;28;20037;-71
2020/12/03 08:52:17;;;;;;;24.38;11.75;;;;;;;5.27;100.00;99709.69;5021539;28;20026;-72
2020/12/03 08:54:43;;;;;;;21.05;10.30;;;;;;;5.19;100.00;99718.09;5043746;28;20068;-73
2020/12/03 08:57:12;;;;;;;24.67;10.45;;;;;;;5.21;100.00;99716.22;5024184;28;20088;-72
2020/12/03 08:59:51;;;;;;;23.08;10.40;;;;;;;5.16;100.00;99718.31;5027968;28;20041;-72
2020/12/03 09:02:18;;;;;;;24.13;11.15;;;;;;;5.18;100.00;99704.91;5020129;28;20618;-72
2020/12/03 09:04:52;;;;;;;20.13;9.52;;;;;;;5.24;100.00;99709.88;5027911;28;20073;-72
2020/12/03 09:07:23;;;;;;;30.77;11.13;;;;;;;5.21;100.00;99705.59;5018094;28;20121;-72
2020/12/03 09:09:51;;;;;;;27.50;11.10;;;;;;;5.29;100.00;99702.47;5042204;28;20068;-72
2020/12/03 09:12:25;;;;;;;30.35;12.93;;;;;;;5.29;100.00;99705.16;5027674;28;20033;-72
2020/12/03 09:14:55;;;;;;;25.75;10.65;;;;;;;5.27;100.00;99699.91;5025166;28;20372;-72
2020/12/03 09:17:23;;;;;;;28.15;13.10;;;;;;;5.21;100.00;99699.41;5026724;28;20386;-72
2020/12/03 09:19:49;;;;;;;22.60;11.70;;;;;;;5.20;100.00;99692.38;5023790;28;20510;-72
2020/12/03 09:22:16;;;;;;;24.98;11.07;;;;;;;5.24;100.00;99683.28;5027735;28;20037;-72
2020/12/03 09:24:46;;;;;;;27.77;11.55;;;;;;;5.26;100.00;99678.72;5020307;28;20044;-72
2020/12/03 09:27:13;;;;;;;28.20;12.65;;;;;;;5.28;100.00;99671.50;5023900;28;20474;-72
2020/12/03 09:29:39;;;;;;;25.63;12.07;;;;;;;5.24;100.00;99667.31;5026784;28;20040;-72
2020/12/03 09:32:08;;;;;;;29.67;12.70;;;;;;;5.28;100.00;99668.84;5025147;28;20025;-72
2020/12/03 09:34:35;;;;;;;26.15;12.00;;;;;;;5.40;100.00;99659.25;5022078;28;20511;-72
2020/12/03 09:37:05;;;;;;;30.48;12.63;;;;;;;5.35;100.00;99664.00;5026485;28;20041;-72
2020/12/03 09:39:33;;;;;;;29.05;14.07;;;;;;;5.30;100.00;99664.28;5026293;28;20060;-72
2020/12/03 09:42:01;;;;;;;42.42;16.95;;;;;;;5.23;100.00;99660.28;5025196;28;20041;-72
2020/12/03 09:44:30;;;;;;;28.50;13.43;;;;;;;5.27;100.00;99665.31;5026009;28;20075;-72
2020/12/03 09:46:57;;;;;;;26.45;12.38;;;;;;;5.41;100.00;99651.19;5026541;28;20450;-72
2020/12/03 09:49:23;;;;;;;27.70;12.50;;;;;;;5.40;100.00;99649.47;5027722;28;20850;-71
2020/12/03 09:51:48;;;;;;;28.38;13.05;;;;;;;5.28;100.00;99647.56;5026139;28;20029;-72
2020/12/03 09:54:14;;;;;;;23.73;12.35;;;;;;;5.28;100.00;99644.91;5027485;28;20499;-72
2020/12/03 09:56:40;;;;;;;28.10;13.45;;;;;;;5.22;100.00;99642.59;5027825;28;20407;-72
2020/12/03 09:59:07;;;;;;;30.55;11.85;;;;;;;5.24;100.00;99636.25;5022317;28;20045;-72
2020/12/03 10:02:00;;;;;;;25.50;12.30;;;;;;;5.22;100.00;99629.31;5024976;28;20480;-72
2020/12/03 10:04:39;;;;;;;30.05;14.05;;;;;;;5.16;100.00;99627.00;5019483;28;20128;-72
2020/12/03 10:07:14;;;;;;;31.05;13.68;;;;;;;5.18;100.00;99620.66;5026583;28;20049;-72
2020/12/03 10:10:05;;;;;;;33.85;14.90;;;;;;;5.16;100.00;99616.38;5022940;28;20038;-72
2020/12/03 10:12:44;;;;;;;35.38;15.68;;;;;;;5.22;100.00;99610.69;5037122;28;20029;-72
2020/12/03 10:15:47;;;;;;;30.75;15.82;;;;;;;5.20;100.00;99604.59;5023926;28;20037;-72
2020/12/03 10:18:20;;;;;;;31.17;14.02;;;;;;;5.18;100.00;99593.22;5021159;28;20056;-72
2020/12/03 10:20:47;;;;;;;;;;;;;;;5.24;100.00;99588.38;5025985;28;20827;-72
2020/12/03 10:23:28;;;;;;;33.80;14.85;;;;;;;5.21;100.00;99582.38;5028626;28;19955;-72
2020/12/03 10:26:03;;;;;;;27.10;14.10;;;;;;;5.30;100.00;99568.53;5025134;28;20034;-72
2020/12/03 10:28:51;;;;;;;31.45;13.27;;;;;;;5.27;100.00;99560.72;5022155;28;20065;-72
2020/12/03 10:31:20;;;;;;;24.98;12.85;;;;;;;5.26;100.00;99549.22;5018711;28;20038;-72
2020/12/03 10:33:51;;;;;;;29.20;12.13;;;;;;;5.34;100.00;99518.63;5022735;28;20065;-72
2020/12/03 10:36:34;;;;;;;30.70;13.05;;;;;;;5.36;100.00;99522.91;5023378;28;20037;-72
2020/12/03 10:39:01;;;;;;;;;;;;;;;5.35;100.00;99515.88;5024649;28;20065;-72
2020/12/03 10:41:37;;;;;;;27.35;13.13;;;;;;;5.31;100.00;99524.97;5023258;28;19960;-72
2020/12/03 10:44:08;;;;;;;30.38;12.63;;;;;;;5.36;100.00;99517.59;5027029;28;20491;-72
2020/12/03 10:46:44;;;;;;;24.42;11.23;;;;;;;5.43;100.00;99512.75;5024775;28;20037;-72
2020/12/03 10:49:15;;;;;;;24.10;11.10;;;;;;;5.40;100.00;99511.13;5024934;28;20109;-72
2020/12/03 10:51:45;;;;;;;28.33;12.27;;;;;;;5.38;100.00;99514.81;5020105;28;20403;-72
2020/12/03 10:54:16;;;;;;;23.00;11.40;;;;;;;5.47;100.00;99515.13;5018168;28;20377;-73
2020/12/03 10:56:44;;;;;;;24.55;11.38;;;;;;;5.47;100.00;99509.78;5019665;28;20483;-72
2020/12/03 10:59:30;;;;;;;29.75;11.40;;;;;;;5.52;100.00;99496.19;5018746;28;20112;-72
2020/12/03 11:01:57;;;;;;;27.55;11.35;;;;;;;5.48;100.00;99490.22;5019239;28;20038;-72
2020/12/03 11:04:24;;;;;;;35.75;14.18;;;;;;;5.52;100.00;99486.41;5022530;28;20033;-72
2020/12/03 11:06:50;;;;;;;24.83;10.32;;;;;;;5.57;100.00;99476.31;5036656;28;20506;-72
2020/12/03 11:09:18;;;;;;;19.27;9.27;;;;;;;5.52;100.00;99470.44;5023725;28;20092;-72
2020/12/03 11:11:44;;;;;;;24.13;9.80;;;;;;;5.57;100.00;99464.81;5020134;28;20204;-72
2020/12/03 11:14:11;;;;;;;22.95;9.75;;;;;;;5.55;100.00;99459.59;5025064;28;20713;-72
2020/12/03 11:16:42;;;;;;;19.02;9.68;;;;;;;5.60;100.00;99448.66;5024325;28;20420;-72
2020/12/03 11:19:10;;;;;;;21.15;9.98;;;;;;;5.62;100.00;99441.41;5025355;28;20057;-72
2020/12/03 11:21:40;;;;;;;24.73;10.57;;;;;;;5.65;100.00;99447.41;5021783;28;20403;-72
2020/12/03 11:24:37;;;;;;;48.67;16.02;;;;;;;5.68;100.00;99431.22;5024027;28;20025;-72
2020/12/03 11:27:05;;;;;;;34.90;14.10;;;;;;;5.65;100.00;99420.78;5024104;28;20044;-72
2020/12/03 11:29:37;;;;;;;51.45;17.90;;;;;;;5.65;100.00;99414.59;5020404;28;20060;-72
2020/12/03 11:32:03;;;;;;;58.88;21.95;;;;;;;5.70;100.00;99416.00;5021308;28;20079;-72
2020/12/03 11:34:38;;;;;;;60.08;22.90;;;;;;;5.73;100.00;99420.28;5021793;28;20025;-72
2020/12/03 11:37:05;;;;;;;22.73;11.00;;;;;;;5.80;100.00;99405.59;5020209;28;20029;-72